Time,TemperatureF,DewpointF,PressureIn,WindDirection,WindDirectionDegrees,WindSpeedMPH,WindSpeedGustMPH,Humidity,HourlyPrecipIn,Conditions,Clouds,dailyrainin,SoftwareType,DateUTC
2013-06-18 00:11:00,72.0,69.0,29.98,West,263,0.0,1.0,90,0.00,,,0.00,weatherlink.com 1.10,2013-06-18 04:11:00,
2013-06-18 00:26:00,71.8,69.0,29.97,West,263,0.0,1.0,91,0.00,,,0.00,weatherlink.com 1.10,2013-06-18 04:26:00,
2013-06-18 00:41:00,71.6,69.0,29.97,WSW,239,0.0,1.0,91,0.00,,,0.00,weatherlink.com 1.10,2013-06-18 04:41:00,
2013-06-18 00:56:00,71.3,69.0,29.96,WSW,239,0.0,0.0,92,0.00,,,0.00,weatherlink.com 1.10,2013-06-18 04:56:00,
2013-06-18 01:11:00,71.1,69.0,29.95,WSW,239,0.0,0.0,92,0.00,,,0.00,weatherlink.com 1.10,2013-06-18 05:11:00,
2013-06-18 01:27:00,70.7,69.0,29.95,WSW,241,0.0,0.0,93,0.00,,,0.00,weatherlink.com 1.10,2013-06-18 05:27:00,
2013-06-18 01:42:00,70.4,68.0,29.95,WSW,240,0.0,1.0,93,0.00,,,0.00,weatherlink.com 1.10,2013-06-18 05:42:00,
2013-06-18 01:57:00,70.2,68.0,29.94,WSW,240,0.0,0.0,93,0.00,,,0.00,weatherlink.com 1.10,2013-06-18 05:57:00,
2013-06-18 02:12:00,69.9,68.0,29.94,WSW,240,0.0,1.0,94,0.00,,,0.00,weatherlink.com 1.10,2013-06-18 06:12:00,
2013-06-18 02:27:00,69.7,68.0,29.93,WSW,240,0.0,1.0,94,0.00,,,0.00,weatherlink.com 1.10,2013-06-18 06:27:00,
2013-06-18 02:42:00,69.5,68.0,29.93,West,275,0.0,2.0,94,0.00,,,0.00,weatherlink.com 1.10,2013-06-18 06:42:00,
2013-06-18 02:57:00,69.2,68.0,29.92,West,271,0.0,0.0,94,0.00,,,0.00,weatherlink.com 1.10,2013-06-18 06:57:00,
2013-06-18 03:12:00,69.1,67.0,29.91,West,271,0.0,1.0,94,0.00,,,0.00,weatherlink.com 1.10,2013-06-18 07:12:00,
2013-06-18 03:27:00,68.7,67.0,29.90,West,271,0.0,0.0,94,0.00,,,0.00,weatherlink.com 1.10,2013-06-18 07:27:00,
2013-06-18 03:42:00,68.6,67.0,29.90,West,271,0.0,0.0,95,0.00,,,0.00,weatherlink.com 1.10,2013-06-18 07:42:00,
2013-06-18 03:57:00,68.3,67.0,29.90,West,271,0.0,0.0,94,0.00,,,0.00,weatherlink.com 1.10,2013-06-18 07:57:00,
2013-06-18 04:12:00,68.4,67.0,29.90,West,271,0.0,0.0,95,0.00,,,0.00,weatherlink.com 1.10,2013-06-18 08:12:00,
2013-06-18 04:27:00,68.4,67.0,29.90,West,271,0.0,0.0,95,0.00,,,0.00,weatherlink.com 1.10,2013-06-18 08:27:00,
2013-06-18 04:42:00,68.6,67.0,29.90,West,271,0.0,0.0,95,0.00,,,0.00,weatherlink.com 1.10,2013-06-18 08:42:00,
2013-06-18 04:57:00,68.8,67.0,29.91,West,271,0.0,0.0,95,0.00,,,0.00,weatherlink.com 1.10,2013-06-18 08:57:00,
2013-06-18 05:12:00,69.0,68.0,29.91,West,271,0.0,0.0,95,0.00,,,0.00,weatherlink.com 1.10,2013-06-18 09:12:00,
2013-06-18 05:27:00,69.1,68.0,29.91,West,271,0.0,1.0,95,0.00,,,0.00,weatherlink.com 1.10,2013-06-18 09:27:00,
2013-06-18 05:42:00,69.1,67.0,29.90,West,271,0.0,0.0,94,0.00,,,0.00,weatherlink.com 1.10,2013-06-18 09:42:00,
2013-06-18 05:57:00,69.0,67.0,29.91,West,271,0.0,1.0,94,0.00,,,0.00,weatherlink.com 1.10,2013-06-18 09:57:00,
2013-06-18 06:12:00,69.1,68.0,29.92,WSW,246,0.0,1.0,95,0.00,,,0.00,weatherlink.com 1.10,2013-06-18 10:12:00,
2013-06-18 06:27:00,69.3,68.0,29.92,SE,132,0.0,1.0,95,0.00,,,0.00,weatherlink.com 1.10,2013-06-18 10:27:00,
2013-06-18 06:42:00,69.6,68.0,29.92,SE,132,0.0,1.0,95,0.00,,,0.00,weatherlink.com 1.10,2013-06-18 10:42:00,
2013-06-18 06:57:00,70.1,69.0,29.92,SSE,148,1.0,4.0,95,0.00,,,0.00,weatherlink.com 1.10,2013-06-18 10:57:00,
2013-06-18 07:12:00,70.7,69.0,29.92,SE,138,0.0,3.0,94,0.00,,,0.00,weatherlink.com 1.10,2013-06-18 11:12:00,
2013-06-18 07:27:00,71.1,69.0,29.92,South,184,0.0,3.0,94,0.00,,,0.00,weatherlink.com 1.10,2013-06-18 11:27:00,
2013-06-18 07:42:00,71.4,69.0,29.92,West,281,0.0,2.0,93,0.00,,,0.00,weatherlink.com 1.10,2013-06-18 11:42:00,
2013-06-18 07:57:00,71.8,70.0,29.92,West,271,0.0,1.0,93,0.00,,,0.00,weatherlink.com 1.10,2013-06-18 11:57:00,
2013-06-18 08:12:00,72.2,70.0,29.91,SE,136,0.0,1.0,92,0.00,,,0.00,weatherlink.com 1.10,2013-06-18 12:12:00,
2013-06-18 08:27:00,72.9,70.0,29.91,West,266,0.0,2.0,91,0.00,,,0.00,weatherlink.com 1.10,2013-06-18 12:27:00,
2013-06-18 08:42:00,73.1,70.0,29.91,SSE,147,0.0,3.0,90,0.00,,,0.00,weatherlink.com 1.10,2013-06-18 12:42:00,
2013-06-18 08:57:00,74.3,71.0,29.91,SSW,211,0.0,4.0,89,0.00,,,0.00,weatherlink.com 1.10,2013-06-18 12:57:00,
2013-06-18 09:12:00,74.5,71.0,29.91,West,265,1.0,3.0,88,0.00,,,0.00,weatherlink.com 1.10,2013-06-18 13:12:00,
2013-06-18 09:27:00,74.5,71.0,29.90,SW,236,0.0,3.0,88,0.00,,,0.00,weatherlink.com 1.10,2013-06-18 13:27:00,
2013-06-18 09:42:00,74.7,71.0,29.90,WSW,253,0.0,3.0,87,0.00,,,0.00,weatherlink.com 1.10,2013-06-18 13:42:00,
2013-06-18 09:57:00,74.4,70.0,29.90,SW,228,1.0,5.0,87,0.00,,,0.00,weatherlink.com 1.10,2013-06-18 13:57:00,
2013-06-18 10:12:00,74.7,71.0,29.91,WNW,288,4.0,4.0,87,0.00,,,0.00,weatherlink.com 1.10,2013-06-18 14:12:00,
2013-06-18 10:27:00,74.8,71.0,29.91,SSE,166,1.0,4.0,87,0.00,,,0.00,weatherlink.com 1.10,2013-06-18 14:27:00,
2013-06-18 10:43:00,74.5,71.0,29.90,SW,228,0.0,4.0,87,0.00,,,0.00,weatherlink.com 1.10,2013-06-18 14:43:00,
2013-06-18 10:58:00,74.3,71.0,29.90,SE,135,1.0,4.0,88,0.00,,,0.00,weatherlink.com 1.10,2013-06-18 14:58:00,
2013-06-18 11:13:00,74.2,71.0,29.91,SW,233,2.0,3.0,88,0.00,,,0.00,weatherlink.com 1.10,2013-06-18 15:13:00,
2013-06-18 11:28:00,75.0,71.0,29.90,ENE,68,2.0,2.0,87,0.00,,,0.00,weatherlink.com 1.10,2013-06-18 15:28:00,
2013-06-18 11:43:00,75.5,71.0,29.90,South,187,2.0,5.0,86,0.00,,,0.00,weatherlink.com 1.10,2013-06-18 15:43:00,
2013-06-18 11:58:00,75.7,71.0,29.90,SW,218,1.0,6.0,86,0.00,,,0.00,weatherlink.com 1.10,2013-06-18 15:58:00,
2013-06-18 12:13:00,77.0,72.0,29.88,SSE,149,1.0,5.0,85,0.00,,,0.00,weatherlink.com 1.10,2013-06-18 16:13:00,
2013-06-18 12:28:00,79.4,73.0,29.88,SE,136,1.0,5.0,80,0.00,,,0.00,weatherlink.com 1.10,2013-06-18 16:28:00,
2013-06-18 12:43:00,80.5,73.0,29.88,SW,231,2.0,4.0,78,0.00,,,0.00,weatherlink.com 1.10,2013-06-18 16:43:00,
2013-06-18 12:58:00,80.4,73.0,29.87,West,263,0.0,4.0,77,0.00,,,0.00,weatherlink.com 1.10,2013-06-18 16:58:00,
2013-06-18 13:13:00,79.8,72.0,29.88,SSE,160,0.0,4.0,78,0.00,,,0.00,weatherlink.com 1.10,2013-06-18 17:13:00,
2013-06-18 13:28:00,79.6,73.0,29.86,SSE,160,3.0,5.0,80,0.00,,,0.00,weatherlink.com 1.10,2013-06-18 17:28:00,
2013-06-18 13:43:00,81.0,74.0,29.86,SSE,167,1.0,3.0,78,0.00,,,0.00,weatherlink.com 1.10,2013-06-18 17:43:00,
2013-06-18 13:58:00,80.3,74.0,29.86,ESE,115,0.0,2.0,80,0.00,,,0.00,weatherlink.com 1.10,2013-06-18 17:58:00,
2013-06-18 14:13:00,81.1,74.0,29.85,SE,141,0.0,3.0,78,0.00,,,0.00,weatherlink.com 1.10,2013-06-18 18:13:00,
2013-06-18 14:28:00,81.6,74.0,29.84,WSW,246,1.0,2.0,77,0.00,,,0.00,weatherlink.com 1.10,2013-06-18 18:28:00,
2013-06-18 14:43:00,82.2,74.0,29.84,West,264,3.0,3.0,76,0.00,,,0.00,weatherlink.com 1.10,2013-06-18 18:43:00,
2013-06-18 14:58:00,84.5,74.0,29.82,WSW,250,3.0,4.0,70,0.00,,,0.00,weatherlink.com 1.10,2013-06-18 18:58:00,
2013-06-18 15:13:00,85.9,76.0,29.81,SSW,207,2.0,4.0,72,0.00,,,0.00,weatherlink.com 1.10,2013-06-18 19:13:00,
2013-06-18 15:28:00,84.4,74.0,29.81,SE,145,1.0,5.0,72,0.00,,,0.00,weatherlink.com 1.10,2013-06-18 19:28:00,
2013-06-18 15:43:00,85.5,76.0,29.80,South,174,1.0,6.0,73,0.00,,,0.00,weatherlink.com 1.10,2013-06-18 19:43:00,
2013-06-18 15:58:00,83.6,74.0,29.80,SE,141,1.0,4.0,73,0.00,,,0.00,weatherlink.com 1.10,2013-06-18 19:58:00,
2013-06-18 16:13:00,83.8,75.0,29.79,SSE,155,1.0,4.0,74,0.00,,,0.00,weatherlink.com 1.10,2013-06-18 20:13:00,
2013-06-18 16:28:00,83.1,74.0,29.79,SE,141,0.0,2.0,74,0.00,,,0.00,weatherlink.com 1.10,2013-06-18 20:28:00,
2013-06-18 16:43:00,83.2,75.0,29.78,South,183,0.0,3.0,75,0.00,,,0.00,weatherlink.com 1.10,2013-06-18 20:43:00,
2013-06-18 16:58:00,84.6,73.0,29.78,SSE,163,1.0,5.0,68,0.00,,,0.00,weatherlink.com 1.10,2013-06-18 20:58:00,
2013-06-18 17:14:00,85.0,73.0,29.77,SE,127,2.0,8.0,67,0.00,,,0.00,weatherlink.com 1.10,2013-06-18 21:14:00,
2013-06-18 17:29:00,84.9,72.0,29.77,SSW,207,2.0,9.0,66,0.00,,,0.00,weatherlink.com 1.10,2013-06-18 21:29:00,
2013-06-18 17:44:00,84.8,73.0,29.77,South,172,1.0,7.0,68,0.00,,,0.00,weatherlink.com 1.10,2013-06-18 21:44:00,
2013-06-18 17:59:00,84.3,72.0,29.76,SSW,198,1.0,6.0,67,0.00,,,0.00,weatherlink.com 1.10,2013-06-18 21:59:00,
2013-06-18 18:14:00,84.7,73.0,29.76,SE,131,1.0,5.0,69,0.00,,,0.00,weatherlink.com 1.10,2013-06-18 22:14:00,
2013-06-18 18:29:00,83.5,74.0,29.77,SW,231,1.0,4.0,72,0.00,,,0.00,weatherlink.com 1.10,2013-06-18 22:29:00,
2013-06-18 18:44:00,81.8,72.0,29.77,SE,136,0.0,7.0,72,0.00,,,0.00,weatherlink.com 1.10,2013-06-18 22:44:00,
2013-06-18 18:59:00,80.7,73.0,29.77,NW,319,3.0,5.0,78,0.00,,,0.00,weatherlink.com 1.10,2013-06-18 22:59:00,
2013-06-18 19:14:00,73.8,69.0,29.78,North,356,16.0,20.0,86,0.01,,,0.01,weatherlink.com 1.10,2013-06-18 23:14:00,
2013-06-18 19:29:00,70.2,68.0,29.79,ENE,70,7.0,17.0,92,0.61,,,0.61,weatherlink.com 1.10,2013-06-18 23:29:00,
2013-06-18 19:44:00,69.6,68.0,29.81,North,352,3.0,9.0,94,1.03,,,1.03,weatherlink.com 1.10,2013-06-18 23:44:00,
2013-06-18 19:59:00,69.5,68.0,29.81,North,352,2.0,8.0,94,1.13,,,1.13,weatherlink.com 1.10,2013-06-18 23:59:00,
2013-06-18 20:14:00,69.4,68.0,29.82,NNE,29,0.0,4.0,95,1.21,,,1.25,weatherlink.com 1.10,2013-06-19 00:14:00,
2013-06-18 20:29:00,69.3,68.0,29.82,North,5,2.0,4.0,95,0.69,,,1.32,weatherlink.com 1.10,2013-06-19 00:29:00,
2013-06-18 20:44:00,69.0,68.0,29.82,NNE,30,0.0,4.0,95,0.34,,,1.38,weatherlink.com 1.10,2013-06-19 00:44:00,
2013-06-18 20:59:00,68.8,67.0,29.81,NNE,25,2.0,5.0,95,0.27,,,1.40,weatherlink.com 1.10,2013-06-19 00:59:00,
2013-06-18 21:14:00,68.8,68.0,29.83,ENE,78,0.0,1.0,96,0.17,,,1.42,weatherlink.com 1.10,2013-06-19 01:14:00,
2013-06-18 21:29:00,69.0,68.0,29.84,ENE,78,0.0,0.0,96,0.14,,,1.46,weatherlink.com 1.10,2013-06-19 01:29:00,
2013-06-18 21:44:00,69.0,68.0,29.86,WSW,238,0.0,2.0,96,0.12,,,1.50,weatherlink.com 1.10,2013-06-19 01:44:00,
2013-06-18 21:59:00,68.9,68.0,29.86,WSW,245,0.0,2.0,96,0.16,,,1.57,weatherlink.com 1.10,2013-06-19 01:59:00,
2013-06-18 22:14:00,68.8,68.0,29.86,WSW,246,0.0,1.0,96,0.15,,,1.58,weatherlink.com 1.10,2013-06-19 02:14:00,
2013-06-18 22:29:00,68.8,68.0,29.86,WSW,245,0.0,1.0,96,0.11,,,1.58,weatherlink.com 1.10,2013-06-19 02:29:00,
2013-06-18 22:44:00,68.7,68.0,29.86,NNW,329,0.0,2.0,96,0.08,,,1.58,weatherlink.com 1.10,2013-06-19 02:44:00,
2013-06-18 22:59:00,68.8,68.0,29.86,NNW,347,0.0,1.0,97,0.01,,,1.58,weatherlink.com 1.10,2013-06-19 02:59:00,
2013-06-18 23:14:00,68.8,68.0,29.86,NNW,347,0.0,0.0,97,0.01,,,1.59,weatherlink.com 1.10,2013-06-19 03:14:00,
2013-06-18 23:29:00,68.7,68.0,29.86,NNW,347,0.0,0.0,97,0.01,,,1.59,weatherlink.com 1.10,2013-06-19 03:29:00,
2013-06-18 23:44:00,68.8,68.0,29.87,NNW,347,0.0,1.0,97,0.01,,,1.59,weatherlink.com 1.10,2013-06-19 03:44:00,
2013-06-18 23:59:00,68.8,68.0,29.88,NE,49,0.0,1.0,97,0.01,,,1.59,weatherlink.com 1.10,2013-06-19 03:59:00,